Time;durP1;ratioP1;P1;durP2;ratioP2;P2;SDS_P1;SDS_P2;PMS_P1;PMS_P2;Temp;Humidity;BMP_temperature;BMP_pressure;BME280_temperature;BME280_humidity;BME280_pressure;Samples;Min_cycle;Max_cycle;Signal;HPM_P1;HPM_P2
2022/03/18 00:01:12;;;;;;;13.38;6.50;;;2.80;99.90;;;;;;5013155;28;20026;-74
2022/03/18 00:03:37;;;;;;;13.80;7.30;;;2.80;99.90;;;;;;5013032;28;20100;-75
2022/03/18 00:06:03;;;;;;;14.23;7.03;;;2.80;99.90;;;;;;5012944;28;20018;-75
2022/03/18 00:08:29;;;;;;;16.63;7.15;;;2.80;99.90;;;;;;5012977;28;20022;-75
2022/03/18 00:10:55;;;;;;;14.65;6.22;;;2.80;99.90;;;;;;5013042;28;20496;-75
2022/03/18 00:13:21;;;;;;;10.57;5.72;;;2.80;99.90;;;;;;5012933;28;20488;-75
2022/03/18 00:15:47;;;;;;;9.05;5.88;;;2.80;99.90;;;;;;5012846;28;20068;-73
2022/03/18 00:18:12;;;;;;;15.52;7.00;;;2.70;99.90;;;;;;5012651;28;20080;-73
2022/03/18 00:20:38;;;;;;;10.80;6.43;;;2.70;99.90;;;;;;5012992;28;20030;-73
2022/03/18 00:23:04;;;;;;;11.75;6.45;;;2.80;99.90;;;;;;5012775;28;20370;-73
2022/03/18 00:25:30;;;;;;;13.07;5.40;;;2.80;99.90;;;;;;5012631;28;20033;-74
2022/03/18 00:27:55;;;;;;;10.55;5.43;;;2.80;99.90;;;;;;5012761;28;20461;-74
2022/03/18 00:30:21;;;;;;;12.73;6.28;;;2.80;99.90;;;;;;5012859;28;20464;-73
2022/03/18 00:32:49;;;;;;;9.05;5.28;;;2.80;99.90;;;;;;5012811;28;20137;-74
2022/03/18 00:35:15;;;;;;;7.25;5.05;;;2.70;99.90;;;;;;5012384;28;20038;-74
2022/03/18 00:37:41;;;;;;;11.80;5.07;;;2.70;99.90;;;;;;5012131;28;20049;-73
2022/03/18 00:40:08;;;;;;;11.27;4.97;;;2.70;99.90;;;;;;5012384;28;20030;-73
2022/03/18 00:42:33;;;;;;;13.88;5.07;;;2.70;99.90;;;;;;5012315;28;20022;-74
2022/03/18 00:44:59;;;;;;;10.35;4.30;;;2.70;99.90;;;;;;5012262;28;20026;-73
2022/03/18 00:52:54;;;;;;;14.18;4.90;;;2.80;99.90;;;;;;5012304;28;20040;-73
2022/03/18 00:55:20;;;;;;;8.75;4.28;;;2.70;99.90;;;;;;5010820;28;20038;-74
2022/03/18 00:57:46;;;;;;;8.13;4.18;;;2.80;99.90;;;;;;5012540;28;20049;-76
2022/03/18 01:00:12;;;;;;;8.48;4.28;;;2.80;99.90;;;;;;5012173;28;20026;-74
2022/03/18 01:02:38;;;;;;;7.65;4.38;;;2.70;99.90;;;;;;5012297;28;20029;-73
2022/03/18 01:05:04;;;;;;;8.57;4.22;;;2.80;99.90;;;;;;5012404;28;20492;-73
2022/03/18 01:07:30;;;;;;;13.82;4.70;;;2.80;99.90;;;;;;5012537;28;20022;-73
2022/03/18 01:09:56;;;;;;;12.20;4.25;;;2.80;99.90;;;;;;5012160;28;20481;-73
2022/03/18 01:12:22;;;;;;;8.38;4.22;;;2.80;99.90;;;;;;5012163;28;20029;-73
2022/03/18 01:14:48;;;;;;;10.10;4.70;;;2.80;99.90;;;;;;5011944;28;20109;-73
2022/03/18 01:17:14;;;;;;;11.48;4.63;;;2.80;99.90;;;;;;5010633;28;20026;-73
2022/03/18 01:19:40;;;;;;;11.68;4.72;;;2.80;99.90;;;;;;5012381;28;20025;-74
2022/03/18 01:22:09;;;;;;;7.82;4.00;;;2.80;99.90;;;;;;5011856;28;20485;-74
2022/03/18 01:24:35;;;;;;;11.80;4.30;;;2.80;99.90;;;;;;5012053;28;20073;-74
2022/03/18 01:27:01;;;;;;;12.82;4.60;;;2.80;99.90;;;;;;5011804;28;20474;-74
2022/03/18 01:29:27;;;;;;;10.38;4.07;;;2.80;99.90;;;;;;5012066;28;20050;-74
2022/03/18 01:31:53;;;;;;;8.43;4.57;;;2.80;99.90;;;;;;5011859;28;20054;-74
2022/03/18 01:34:19;;;;;;;8.15;4.65;;;2.80;99.90;;;;;;5011739;28;20026;-74
2022/03/18 01:36:44;;;;;;;8.73;4.35;;;2.80;99.90;;;;;;5011837;28;20394;-73
2022/03/18 01:39:12;;;;;;;7.85;4.53;;;2.80;99.90;;;;;;5011603;28;20105;-73
2022/03/18 01:41:39;;;;;;;8.50;4.53;;;2.80;99.90;;;;;;5012084;28;20030;-73
2022/03/18 01:44:08;;;;;;;9.50;4.30;;;2.80;99.90;;;;;;5010545;28;20041;-72
2022/03/18 01:46:37;;;;;;;11.10;4.30;;;2.80;99.90;;;;;;5012104;28;20023;-73
2022/03/18 01:49:03;;;;;;;13.27;4.93;;;2.90;99.90;;;;;;5011691;28;20052;-73
2022/03/18 01:51:28;;;;;;;11.75;4.35;;;2.90;99.90;;;;;;5011801;28;20084;-73
2022/03/18 01:54:44;;;;;;;8.82;4.18;;;2.90;99.90;;;;;;5011690;28;20033;-73
2022/03/18 01:56:41;;;;;;;11.75;4.50;;;2.90;99.90;;;;;;5011541;28;20062;-73
2022/03/18 01:59:07;;;;;;;12.82;5.03;;;2.90;99.90;;;;;;5011834;28;20029;-73
2022/03/18 02:01:32;;;;;;;12.65;5.45;;;2.90;99.90;;;;;;5011939;28;20022;-74
2022/03/18 02:03:58;;;;;;;13.90;5.43;;;2.90;99.90;;;;;;5012927;28;20473;-74
2022/03/18 02:06:25;;;;;;;10.80;4.78;;;2.90;99.90;;;;;;5015090;28;20108;-74
2022/03/18 02:08:51;;;;;;;9.65;4.88;;;2.90;99.90;;;;;;5015406;28;20029;-74
2022/03/18 02:11:16;;;;;;;10.50;4.22;;;2.90;99.90;;;;;;5015326;28;20362;-74
2022/03/18 02:13:42;;;;;;;8.88;4.50;;;2.90;99.90;;;;;;5015020;28;20021;-74
2022/03/18 02:16:08;;;;;;;12.18;4.85;;;2.90;99.90;;;;;;5014815;28;20045;-73
2022/03/18 02:18:33;;;;;;;11.77;4.70;;;2.90;99.90;;;;;;5015244;28;20026;-74
2022/03/18 02:20:59;;;;;;;9.55;4.80;;;3.00;99.90;;;;;;5015058;28;20099;-75
2022/03/18 02:23:25;;;;;;;9.25;4.82;;;3.00;99.90;;;;;;5014732;28;20134;-73
2022/03/18 02:54:54;;;;;;;14.18;5.70;;;3.10;99.90;;;;;;5013671;28;20058;-78
2022/03/18 02:57:20;;;;;;;14.93;5.07;;;3.10;99.90;;;;;;5014068;28;20045;-76
2022/03/18 02:59:46;;;;;;;10.93;4.78;;;3.10;99.90;;;;;;5014274;28;20058;-76
2022/03/18 03:02:12;;;;;;;8.48;5.05;;;3.10;99.90;;;;;;5013985;28;20022;-76
2022/03/18 03:37:04;;;;;;;15.18;6.78;;;3.20;99.90;;;;;;5835550;23;20050;-70
2022/03/18 03:39:29;;;;;;;16.55;5.85;;;3.20;99.90;;;;;;4972867;28;20035;-70
2022/03/18 03:41:55;;;;;;;12.40;5.25;;;3.20;99.90;;;;;;4974417;28;20038;-70
2022/03/18 03:44:21;;;;;;;13.23;6.05;;;3.20;99.90;;;;;;4974128;28;20394;-69
2022/03/18 03:46:46;;;;;;;12.30;5.55;;;3.20;99.90;;;;;;4974387;28;20023;-70
2022/03/18 03:49:12;;;;;;;15.18;6.03;;;3.20;99.90;;;;;;4974532;28;20027;-70
2022/03/18 03:51:37;;;;;;;13.40;5.53;;;3.20;99.90;;;;;;4974650;28;20031;-70
2022/03/18 03:54:03;;;;;;;14.82;5.97;;;3.20;99.90;;;;;;4974149;28;20432;-70
2022/03/18 03:56:29;;;;;;;18.30;6.50;;;3.10;99.90;;;;;;4972927;28;20027;-71
2022/03/18 03:58:54;;;;;;;14.25;5.90;;;3.10;99.90;;;;;;4974310;28;20030;-71
2022/03/18 04:01:20;;;;;;;11.52;5.80;;;3.20;99.90;;;;;;4973991;28;20031;-71
2022/03/18 04:03:47;;;;;;;16.70;6.53;;;3.10;99.90;;;;;;4972777;28;20045;-70
2022/03/18 04:06:13;;;;;;;14.20;5.82;;;3.10;99.90;;;;;;4974124;28;20097;-70
2022/03/18 04:08:39;;;;;;;12.93;5.88;;;3.10;99.90;;;;;;4973914;28;20031;-70
2022/03/18 04:11:05;;;;;;;13.32;5.82;;;3.10;99.90;;;;;;4974151;28;20029;-71
2022/03/18 04:13:30;;;;;;;13.25;5.80;;;3.10;99.90;;;;;;4973911;28;20477;-71
2022/03/18 04:15:56;;;;;;;13.68;5.50;;;3.10;99.90;;;;;;4972445;28;20390;-70
2022/03/18 04:18:22;;;;;;;12.02;5.90;;;3.10;99.90;;;;;;4972311;28;20034;-70
2022/03/18 04:20:47;;;;;;;13.00;5.88;;;3.10;99.90;;;;;;4974077;28;20033;-70
2022/03/18 04:23:13;;;;;;;11.43;6.13;;;3.00;99.90;;;;;;4973565;28;20027;-70
2022/03/18 04:25:40;;;;;;;18.15;6.10;;;3.00;99.90;;;;;;4973972;28;20122;-70
2022/03/18 04:28:05;;;;;;;13.57;6.60;;;3.00;99.90;;;;;;4972977;28;20026;-70
2022/03/18 04:30:31;;;;;;;15.40;5.70;;;3.00;99.90;;;;;;4973433;28;20026;-70
2022/03/18 04:32:57;;;;;;;13.20;5.75;;;3.00;99.90;;;;;;4973545;28;20117;-70
2022/03/18 04:35:23;;;;;;;18.80;6.22;;;3.00;99.90;;;;;;4973344;28;20077;-70
2022/03/18 04:37:49;;;;;;;11.30;5.38;;;3.00;99.90;;;;;;4973220;28;20406;-70
2022/03/18 04:40:15;;;;;;;13.52;5.55;;;3.00;99.90;;;;;;4973370;28;20035;-70
2022/03/18 04:42:44;;;;;;;13.10;5.88;;;3.00;99.90;;;;;;4973212;28;20109;-70
2022/03/18 04:45:10;;;;;;;8.32;5.47;;;3.00;99.90;;;;;;4973322;28;20034;-71
2022/03/18 04:47:36;;;;;;;9.80;4.70;;;3.00;99.90;;;;;;4973568;28;20027;-71
2022/03/18 04:50:03;;;;;;;11.55;5.20;;;3.00;99.90;;;;;;4973364;28;20030;-71
2022/03/18 04:52:28;;;;;;;7.30;5.15;;;3.00;99.90;;;;;;4973204;28;20090;-71
2022/03/18 04:54:54;;;;;;;9.75;4.72;;;3.00;99.90;;;;;;4973208;28;20031;-70
2022/03/18 04:57:20;;;;;;;10.70;5.43;;;3.00;99.90;;;;;;4973411;28;20033;-70
2022/03/18 04:59:48;;;;;;;8.20;4.70;;;3.10;99.90;;;;;;4973273;28;20113;-71
2022/03/18 05:02:15;;;;;;;12.23;5.10;;;3.10;99.90;;;;;;4973386;28;20486;-70
2022/03/18 05:04:42;;;;;;;9.73;5.70;;;3.10;99.90;;;;;;4973185;28;20023;-70
2022/03/18 05:07:09;;;;;;;9.20;5.00;;;3.10;99.90;;;;;;4973428;28;20165;-70
2022/03/18 05:09:34;;;;;;;8.07;4.85;;;3.10;99.90;;;;;;4973145;28;20027;-71
2022/03/18 05:12:00;;;;;;;10.45;4.88;;;3.10;99.90;;;;;;4973402;28;20037;-72
2022/03/18 05:14:26;;;;;;;10.18;5.28;;;3.10;99.90;;;;;;4973055;28;20426;-72
2022/03/18 05:16:52;;;;;;;8.50;4.88;;;3.10;99.90;;;;;;4973238;28;20508;-72
2022/03/18 05:19:18;;;;;;;8.00;4.90;;;3.10;99.90;;;;;;4972926;28;20027;-71
2022/03/18 05:21:44;;;;;;;7.65;5.07;;;3.10;99.90;;;;;;4973381;28;20389;-71
2022/03/18 05:24:10;;;;;;;11.25;4.93;;;3.10;99.90;;;;;;4973343;28;20042;-71
2022/03/18 05:26:36;;;;;;;7.35;5.25;;;3.20;99.90;;;;;;4973363;28;20434;-70
2022/03/18 05:29:03;;;;;;;7.97;5.20;;;3.20;99.90;;;;;;4973064;28;20445;-73
2022/03/18 05:31:31;;;;;;;9.07;5.32;;;3.10;99.90;;;;;;4972840;28;20110;-69
2022/03/18 05:33:57;;;;;;;10.25;5.38;;;3.10;99.90;;;;;;4972958;28;20090;-69
2022/03/18 05:36:23;;;;;;;7.50;5.28;;;3.10;99.90;;;;;;4972730;28;20042;-70
2022/03/18 05:38:49;;;;;;;10.27;5.20;;;3.10;99.90;;;;;;4973283;28;20047;-70
2022/03/18 05:41:14;;;;;;;8.93;5.18;;;4.00;99.90;;;;;;4976425;28;20027;-69
2022/03/18 05:43:40;;;;;;;10.23;5.90;;;5.50;99.90;;;;;;4976753;28;20030;-69
2022/03/18 05:46:07;;;;;;;11.65;6.70;;;5.20;99.90;;;;;;4976418;28;20077;-73
2022/03/18 05:48:32;;;;;;;19.63;10.65;;;4.60;99.90;;;;;;4976049;28;20032;-74
2022/03/18 05:51:00;;;;;;;11.43;6.40;;;4.20;99.90;;;;;;4976332;28;20027;-70
2022/03/18 05:53:26;;;;;;;16.80;10.02;;;4.10;99.90;;;;;;4975878;28;20090;-69
2022/03/18 05:58:37;;;;;;;21.33;11.38;;;3.90;99.90;;;;;;4974846;28;20124;-68
2022/03/18 06:01:03;;;;;;;11.65;6.70;;;3.90;99.90;;;;;;4975757;28;20507;-71
2022/03/18 06:03:29;;;;;;;11.05;6.78;;;3.80;99.90;;;;;;4976001;28;20173;-69
2022/03/18 06:05:55;;;;;;;10.90;6.35;;;3.80;99.90;;;;;;4975565;28;20019;-72
2022/03/18 06:13:50;;;;;;;11.93;7.03;;;3.70;99.90;;;;;;4956925;29;20038;-72
2022/03/18 06:16:15;;;;;;;16.63;6.32;;;3.60;99.90;;;;;;4971713;28;20030;-73
2022/03/18 06:18:41;;;;;;;12.80;6.38;;;3.60;99.90;;;;;;4975426;28;20082;-72
2022/03/18 06:21:08;;;;;;;11.02;6.93;;;3.50;99.90;;;;;;4975694;28;20030;-73
2022/03/18 06:23:34;;;;;;;9.75;6.63;;;3.50;99.90;;;;;;4975361;28;20023;-69
2022/03/18 06:26:01;;;;;;;14.07;8.00;;;3.50;99.90;;;;;;4976053;28;20089;-70
2022/03/18 06:28:27;;;;;;;14.18;7.70;;;3.50;99.90;;;;;;4975772;28;20121;-70
2022/03/18 06:30:53;;;;;;;13.80;8.48;;;3.50;99.90;;;;;;4975973;28;20027;-71
2022/03/18 06:33:19;;;;;;;13.52;7.80;;;3.60;99.90;;;;;;4975497;28;20031;-71
2022/03/18 06:35:44;;;;;;;10.20;7.03;;;3.60;99.90;;;;;;4975442;28;20042;-71
2022/03/18 06:38:10;;;;;;;10.73;7.15;;;3.60;99.90;;;;;;4975281;28;20058;-72
2022/03/18 06:40:36;;;;;;;14.10;7.75;;;3.60;99.90;;;;;;4975781;28;20093;-71
2022/03/18 06:43:02;;;;;;;13.95;8.05;;;3.60;99.90;;;;;;4975450;28;20565;-72
2022/03/18 06:45:27;;;;;;;13.25;7.78;;;3.60;99.90;;;;;;4975581;28;20034;-72
2022/03/18 06:47:53;;;;;;;12.63;8.20;;;3.50;99.90;;;;;;4975403;28;20034;-72
2022/03/18 06:50:20;;;;;;;13.10;8.32;;;3.50;99.90;;;;;;4974889;28;20070;-72
2022/03/18 06:52:46;;;;;;;12.13;7.95;;;3.50;99.90;;;;;;4975493;28;20023;-72
2022/03/18 06:55:12;;;;;;;12.45;7.80;;;3.50;99.90;;;;;;4975468;28;20046;-72
2022/03/18 06:57:37;;;;;;;15.82;8.23;;;3.50;99.90;;;;;;4973930;28;20023;-75
2022/03/18 07:00:04;;;;;;;12.25;8.30;;;3.50;99.90;;;;;;4975208;28;20085;-74
2022/03/18 07:02:29;;;;;;;14.25;8.75;;;3.50;99.90;;;;;;4975037;28;20107;-74
2022/03/18 07:04:55;;;;;;;12.18;7.78;;;3.60;99.90;;;;;;4975303;28;20101;-76
2022/03/18 07:07:21;;;;;;;12.05;8.27;;;4.30;99.90;;;;;;4974875;28;20105;-76
2022/03/18 07:09:47;;;;;;;14.20;8.68;;;4.60;99.90;;;;;;4975162;28;20027;-74
2022/03/18 07:12:13;;;;;;;12.25;7.82;;;4.40;99.90;;;;;;4975120;28;20390;-74
2022/03/18 07:14:38;;;;;;;13.15;8.25;;;4.20;99.90;;;;;;4974673;28;20487;-74
2022/03/18 07:19:49;;;;;;;14.73;8.80;;;4.00;99.90;;;;;;4974841;28;20037;-74
2022/03/18 07:22:15;;;;;;;17.40;9.10;;;4.00;99.90;;;;;;4974821;28;20069;-72
2022/03/18 07:24:40;;;;;;;14.35;8.35;;;4.00;99.90;;;;;;4974641;28;20031;-72
2022/03/18 07:27:06;;;;;;;14.38;8.93;;;4.00;99.90;;;;;;4974752;28;20360;-72
2022/03/18 07:29:32;;;;;;;14.77;9.60;;;3.90;99.90;;;;;;4974448;28;20026;-72
2022/03/18 07:31:58;;;;;;;14.82;9.77;;;3.90;99.90;;;;;;4974912;28;20026;-67
2022/03/18 07:34:24;;;;;;;27.05;17.10;;;3.90;99.90;;;;;;4974295;28;20496;-68
2022/03/18 07:36:50;;;;;;;35.58;22.02;;;3.90;99.90;;;;;;4974273;28;20035;-67
2022/03/18 07:39:16;;;;;;;17.77;11.95;;;3.90;99.90;;;;;;4974378;28;20037;-69
2022/03/18 07:41:42;;;;;;;18.13;9.73;;;3.90;99.90;;;;;;4974379;28;20126;-69
2022/03/18 07:44:08;;;;;;;15.55;10.27;;;4.00;99.90;;;;;;4974410;28;20363;-68
2022/03/18 07:46:34;;;;;;;18.50;10.65;;;4.00;99.90;;;;;;4974137;28;20031;-70
2022/03/18 07:49:01;;;;;;;15.77;10.15;;;4.10;99.90;;;;;;4974000;28;20029;-69
2022/03/18 07:51:27;;;;;;;15.68;9.52;;;4.10;99.90;;;;;;4974011;28;20034;-70
2022/03/18 07:53:52;;;;;;;14.85;10.25;;;4.10;99.90;;;;;;4973893;28;20397;-70
2022/03/18 07:56:18;;;;;;;16.02;9.63;;;4.20;99.90;;;;;;4973554;28;20038;-71
2022/03/18 07:58:44;;;;;;;12.60;9.25;;;4.20;99.90;;;;;;4956485;28;20030;-70
2022/03/18 08:01:11;;;;;;;14.18;9.38;;;4.30;99.90;;;;;;4970051;28;20055;-69
2022/03/18 08:03:37;;;;;;;18.48;9.48;;;4.30;99.90;;;;;;4972970;28;20033;-68
2022/03/18 08:06:03;;;;;;;15.65;9.52;;;4.40;99.90;;;;;;4973317;28;20027;-68
2022/03/18 08:08:29;;;;;;;14.25;9.30;;;4.40;99.90;;;;;;4973250;28;20019;-68
2022/03/18 08:10:55;;;;;;;15.52;10.30;;;4.40;99.90;;;;;;4973678;28;20045;-69
2022/03/18 08:13:21;;;;;;;17.35;10.68;;;4.40;99.90;;;;;;4972374;28;20023;-68
2022/03/18 08:15:47;;;;;;;14.18;9.60;;;4.50;99.90;;;;;;4973414;28;20442;-69
2022/03/18 08:18:13;;;;;;;16.05;8.80;;;4.50;99.90;;;;;;4972908;28;20113;-68
2022/03/18 08:20:40;;;;;;;12.27;8.82;;;4.60;99.90;;;;;;4970919;28;20093;-68
2022/03/18 08:23:12;;;;;;;13.70;8.55;;;4.60;99.90;;;;;;4964152;28;20034;-68
2022/03/18 08:25:38;;;;;;;12.43;9.07;;;4.80;99.90;;;;;;4966701;28;20041;-71
2022/03/18 08:28:05;;;;;;;14.55;9.25;;;5.00;99.90;;;;;;4972899;28;20209;-67
2022/03/18 08:30:31;;;;;;;14.88;9.32;;;5.00;99.90;;;;;;4973000;28;20386;-68
2022/03/18 08:32:57;;;;;;;14.98;9.05;;;5.00;99.90;;;;;;4972638;28;20069;-70
2022/03/18 08:35:23;;;;;;;15.15;9.10;;;5.00;99.90;;;;;;4972771;28;20062;-70
2022/03/18 08:37:58;;;;;;;13.40;9.00;;;5.10;99.90;;;;;;4973022;28;20054;-70
2022/03/18 08:40:32;;;;;;;13.18;9.05;;;5.10;99.90;;;;;;4972788;28;20042;-69
2022/03/18 08:42:59;;;;;;;13.73;8.15;;;5.20;99.90;;;;;;4972110;28;20018;-68
2022/03/18 08:45:26;;;;;;;13.98;8.90;;;5.70;99.90;;;;;;4972845;28;20034;-69
2022/03/18 08:47:56;;;;;;;12.43;7.25;;;6.10;99.90;;;;;;4973057;28;20097;-69
2022/03/18 08:50:22;;;;;;;13.50;8.18;;;6.40;99.90;;;;;;4973119;28;20062;-67
2022/03/18 08:52:49;;;;;;;12.85;8.32;;;7.00;99.90;;;;;;4973574;28;20089;-69
2022/03/18 08:55:15;;;;;;;11.27;8.38;;;8.40;99.90;;;;;;4971810;28;20524;-69
2022/03/18 08:57:41;;;;;;;12.57;7.97;;;8.30;99.90;;;;;;4973329;28;20019;-69
2022/03/18 09:00:11;;;;;;;10.15;7.40;;;7.70;99.90;;;;;;4973172;28;20517;-69
2022/03/18 09:02:38;;;;;;;11.70;7.90;;;7.10;99.90;;;;;;4972948;28;20030;-67
2022/03/18 09:05:05;;;;;;;10.40;7.40;;;6.70;99.90;;;;;;4973025;28;20027;-67
2022/03/18 09:07:32;;;;;;;11.95;7.28;;;6.50;99.90;;;;;;4972966;28;20027;-69
2022/03/18 09:09:58;;;;;;;12.90;8.02;;;6.40;99.90;;;;;;4973067;28;20023;-69
2022/03/18 09:12:24;;;;;;;12.13;7.88;;;6.20;99.90;;;;;;4973080;28;20090;-69
2022/03/18 09:14:50;;;;;;;15.43;8.77;;;6.10;99.90;;;;;;4977001;28;20043;-67
2022/03/18 09:17:16;;;;;;;12.85;8.00;;;6.00;99.90;;;;;;4977357;28;20026;-67
2022/03/18 09:19:42;;;;;;;13.80;8.45;;;6.00;99.90;;;;;;4976994;28;20059;-67
2022/03/18 09:22:10;;;;;;;10.30;7.60;;;5.90;99.90;;;;;;4977103;28;20054;-69
2022/03/18 09:24:37;;;;;;;12.40;8.02;;;5.90;99.90;;;;;;4976898;28;20034;-69
2022/03/18 09:27:03;;;;;;;11.40;7.80;;;5.90;99.90;;;;;;4976760;28;20498;-69
2022/03/18 09:29:29;;;;;;;11.20;7.47;;;5.80;99.90;;;;;;4976778;28;20030;-69
2022/03/18 09:31:55;;;;;;;11.77;8.02;;;5.80;99.90;;;;;;4977085;28;20026;-69
2022/03/18 09:34:24;;;;;;;11.25;7.53;;;5.70;99.90;;;;;;4976576;28;20537;-69
2022/03/18 09:36:52;;;;;;;9.35;7.10;;;5.70;99.90;;;;;;4976465;28;20069;-69
2022/03/18 09:39:18;;;;;;;9.52;7.05;;;5.70;99.90;;;;;;4976536;28;20107;-67
2022/03/18 09:41:43;;;;;;;12.52;6.70;;;5.70;99.90;;;;;;4976499;28;20371;-69
2022/03/18 09:44:10;;;;;;;9.75;6.82;;;5.70;99.90;;;;;;4976621;28;20034;-69
2022/03/18 09:46:36;;;;;;;10.45;7.18;;;5.70;99.90;;;;;;4976432;28;20082;-69
2022/03/18 09:49:06;;;;;;;9.55;6.82;;;5.70;99.90;;;;;;4976389;28;20027;-69
2022/03/18 09:51:32;;;;;;;11.57;6.95;;;5.60;99.90;;;;;;4976364;28;20109;-69
2022/03/18 09:53:59;;;;;;;11.23;7.28;;;5.70;99.90;;;;;;4976262;28;20102;-69
2022/03/18 09:56:25;;;;;;;9.55;6.55;;;5.70;99.90;;;;;;4975295;28;20474;-69
2022/03/18 09:58:50;;;;;;;11.65;7.20;;;5.70;99.90;;;;;;4975973;28;20062;-67
2022/03/18 10:01:17;;;;;;;8.95;6.63;;;5.70;99.90;;;;;;4976488;28;20031;-69
2022/03/18 10:03:44;;;;;;;11.52;6.75;;;5.70;99.90;;;;;;4975777;28;20498;-69
2022/03/18 10:06:11;;;;;;;9.10;6.95;;;5.80;99.90;;;;;;4976439;28;20034;-69
2022/03/18 10:08:37;;;;;;;9.57;6.85;;;5.80;99.90;;;;;;4976107;28;20026;-69
2022/03/18 10:11:20;;;;;;;10.48;6.93;;;5.90;99.90;;;;;;4976027;28;20034;-69
2022/03/18 10:14:01;;;;;;;12.60;7.05;;;5.90;99.90;;;;;;4975643;28;20077;-69
2022/03/18 10:16:37;;;;;;;12.32;7.32;;;5.90;99.90;;;;;;4975629;28;20027;-69
2022/03/18 10:19:11;;;;;;;8.27;5.97;;;5.90;99.90;;;;;;4975984;28;20098;-69
2022/03/18 10:21:50;;;;;;;9.73;4.07;;;5.90;99.90;;;;;;4976140;28;20360;-69
2022/03/18 10:24:17;;;;;;;8.27;5.50;;;6.10;99.90;;;;;;4974973;28;20022;-69
2022/03/18 10:26:43;;;;;;;11.35;6.57;;;7.30;99.90;;;;;;4975492;28;20479;-72
2022/03/18 10:29:13;;;;;;;13.15;7.38;;;7.60;99.90;;;;;;4975722;28;20073;-72
2022/03/18 10:31:40;;;;;;;9.85;6.60;;;7.40;99.90;;;;;;4975777;28;20069;-73
2022/03/18 10:37:09;;;;;;;9.85;6.15;;;6.90;99.90;;;;;;4975789;28;20405;-73
2022/03/18 10:39:41;;;;;;;8.93;6.00;;;6.80;99.90;;;;;;4975434;28;20056;-74
2022/03/18 10:42:12;;;;;;;7.93;6.20;;;7.30;99.90;;;;;;4974398;28;20129;-70
2022/03/18 10:44:43;;;;;;;10.15;6.22;;;7.30;99.90;;;;;;4975472;28;20059;-68
2022/03/18 10:47:22;;;;;;;7.95;6.35;;;7.10;99.90;;;;;;4974966;28;20110;-67
2022/03/18 10:49:48;;;;;;;9.27;6.30;;;7.00;99.90;;;;;;4974504;28;20029;-67
2022/03/18 10:52:15;;;;;;;8.43;5.82;;;6.90;99.90;;;;;;4975183;28;20403;-68
2022/03/18 10:54:41;;;;;;;9.50;5.93;;;6.90;99.90;;;;;;4975330;28;20033;-67
2022/03/18 10:57:06;;;;;;;7.55;5.38;;;6.90;99.90;;;;;;4975131;28;20113;-68
2022/03/18 10:59:32;;;;;;;9.35;5.85;;;6.90;99.90;;;;;;4974538;28;20622;-68
2022/03/18 11:02:00;;;;;;;8.82;5.55;;;6.90;99.90;;;;;;4974720;28;20054;-68
2022/03/18 11:04:27;;;;;;;9.75;6.05;;;6.90;99.90;;;;;;4974283;28;20081;-68
2022/03/18 11:12:32;;;;;;;6.90;4.88;;;7.00;99.90;;;;;;4974176;28;20038;-68
2022/03/18 11:14:59;;;;;;;7.25;5.18;;;6.90;99.90;;;;;;4974841;28;20035;-69
2022/03/18 11:17:26;;;;;;;8.50;5.22;;;6.90;99.90;;;;;;4974958;28;20042;-69
2022/03/18 11:19:53;;;;;;;7.63;5.38;;;7.00;99.90;;;;;;4974742;28;20069;-69
2022/03/18 11:22:20;;;;;;;6.57;5.03;;;7.00;99.90;;;;;;4974421;28;20034;-69
2022/03/18 11:24:46;;;;;;;6.97;5.05;;;7.00;99.90;;;;;;4974577;28;20058;-69
2022/03/18 11:27:12;;;;;;;7.72;5.22;;;7.00;99.90;;;;;;4974761;28;20035;-69
2022/03/18 11:29:39;;;;;;;7.68;5.03;;;7.10;99.90;;;;;;4974778;28;20023;-69
2022/03/18 11:32:12;;;;;;;7.32;4.70;;;7.10;99.90;;;;;;4974502;28;20398;-69
2022/03/18 11:35:07;;;;;;;6.63;4.53;;;7.10;99.90;;;;;;4974475;28;20026;-69
2022/03/18 11:37:33;;;;;;;5.43;4.05;;;7.10;99.90;;;;;;4961129;28;20047;-69
2022/03/18 11:40:22;;;;;;;5.43;4.07;;;7.10;99.90;;;;;;4973402;28;20025;-69
2022/03/18 11:42:49;;;;;;;7.38;4.13;;;7.10;99.90;;;;;;4973984;28;20026;-68
2022/03/18 11:45:37;;;;;;;7.13;3.80;;;7.10;99.90;;;;;;4973066;28;20089;-68
2022/03/18 11:48:35;;;;;;;5.18;3.75;;;7.20;99.90;;;;;;4973195;28;20588;-67
2022/03/18 11:51:21;;;;;;;5.32;3.75;;;7.20;99.90;;;;;;4974217;28;20505;-68
2022/03/18 11:53:51;;;;;;;6.22;4.07;;;7.20;99.90;;;;;;4974141;28;20493;-68
2022/03/18 11:56:19;;;;;;;5.03;3.78;;;7.20;99.90;;;;;;4974069;28;20034;-67
2022/03/18 11:58:45;;;;;;;5.32;3.70;;;7.20;99.90;;;;;;4973667;28;20030;-68
2022/03/18 12:01:39;;;;;;;7.63;3.53;;;7.20;99.90;;;;;;4973840;28;20037;-68
2022/03/18 12:04:06;;;;;;;5.72;3.28;;;7.30;99.90;;;;;;4972941;28;20110;-69
2022/03/18 12:06:32;;;;;;;7.88;3.55;;;7.30;99.90;;;;;;4973523;28;20422;-69
2022/03/18 12:09:00;;;;;;;7.63;3.65;;;7.30;99.90;;;;;;4973733;28;20030;-68
2022/03/18 12:11:27;;;;;;;5.65;3.40;;;7.30;99.90;;;;;;4973692;28;20018;-68
2022/03/18 12:13:53;;;;;;;5.28;3.08;;;7.30;99.90;;;;;;4973789;28;20081;-68
2022/03/18 12:16:20;;;;;;;5.07;3.30;;;7.40;99.90;;;;;;4973730;28;20418;-69
2022/03/18 12:18:46;;;;;;;5.55;3.60;;;7.40;99.90;;;;;;4973647;28;20034;-68
2022/03/18 12:21:13;;;;;;;4.80;3.15;;;7.50;99.90;;;;;;4973486;28;20054;-68
2022/03/18 12:23:39;;;;;;;4.30;2.80;;;7.50;99.90;;;;;;4973082;28;20113;-68
2022/03/18 12:26:06;;;;;;;3.85;3.08;;;7.50;99.90;;;;;;4973094;28;20105;-68
2022/03/18 12:28:49;;;;;;;4.47;2.80;;;7.50;99.90;;;;;;4973005;28;20617;-69
2022/03/18 12:31:19;;;;;;;5.43;3.20;;;7.50;99.90;;;;;;4972020;28;20037;-68
2022/03/18 12:33:45;;;;;;;5.38;3.10;;;7.50;99.90;;;;;;4972903;28;20030;-70
2022/03/18 12:36:13;;;;;;;4.15;2.97;;;7.50;99.90;;;;;;4972306;28;20049;-67
2022/03/18 12:38:45;;;;;;;4.15;2.80;;;7.60;99.90;;;;;;4981983;28;20410;-67
2022/03/18 12:41:12;;;;;;;5.85;2.80;;;7.60;99.90;;;;;;4976434;28;20027;-67
2022/03/18 12:43:37;;;;;;;3.75;2.78;;;7.60;99.90;;;;;;4972749;28;20027;-67
2022/03/18 12:46:04;;;;;;;5.70;2.90;;;7.60;99.90;;;;;;4972964;28;20106;-67
2022/03/18 12:48:30;;;;;;;4.40;2.80;;;7.70;99.90;;;;;;4972742;28;20054;-67
2022/03/18 12:50:57;;;;;;;7.30;2.72;;;7.70;99.90;;;;;;4973168;28;20443;-68
2022/03/18 12:53:30;;;;;;;5.72;2.50;;;7.90;99.90;;;;;;4973449;28;20027;-67
2022/03/18 12:55:58;;;;;;;2.90;2.60;;;8.90;99.90;;;;;;4973295;28;20042;-67
2022/03/18 12:58:26;;;;;;;5.22;2.78;;;8.70;99.20;;;;;;4973302;28;20085;-67
2022/03/18 13:00:56;;;;;;;5.15;2.55;;;8.40;99.30;;;;;;4973048;28;20027;-67
2022/03/18 13:03:26;;;;;;;3.97;2.88;;;8.20;99.10;;;;;;4972997;28;20046;-67
2022/03/18 13:05:54;;;;;;;3.45;2.35;;;8.10;99.40;;;;;;4971642;28;20053;-67
2022/03/18 13:08:20;;;;;;;4.13;2.83;;;8.00;98.50;;;;;;4973048;28;20019;-66
2022/03/18 13:10:57;;;;;;;3.28;2.00;;;7.90;98.60;;;;;;4972872;28;20034;-67
2022/03/18 13:13:27;;;;;;;3.40;2.10;;;7.90;96.60;;;;;;4972944;28;20027;-67
2022/03/18 13:15:59;;;;;;;3.85;1.90;;;7.80;95.40;;;;;;4972705;28;20035;-67
2022/03/18 13:18:31;;;;;;;4.05;2.22;;;7.80;94.50;;;;;;4973066;28;20062;-67
2022/03/18 13:21:00;;;;;;;3.83;2.00;;;7.80;95.00;;;;;;4973295;28;20029;-67
2022/03/18 13:23:27;;;;;;;2.83;1.88;;;7.80;94.80;;;;;;4972727;28;20081;-67
2022/03/18 13:25:54;;;;;;;2.80;1.88;;;7.70;94.80;;;;;;4972910;28;20035;-69
2022/03/18 13:28:20;;;;;;;3.78;1.98;;;7.70;94.60;;;;;;4972871;28;20386;-69
2022/03/18 13:33:48;;;;;;;3.60;1.80;;;7.70;93.90;;;;;;4973260;28;20033;-69
2022/03/18 13:36:23;;;;;;;3.50;2.00;;;7.60;93.80;;;;;;4972772;28;20061;-69
2022/03/18 13:38:50;;;;;;;3.42;1.70;;;8.90;99.90;;;;;;4972681;28;20426;-70
2022/03/18 13:41:16;;;;;;;5.50;1.90;;;9.60;99.90;;;;;;4972824;28;20019;-69
2022/03/18 13:43:45;;;;;;;3.40;1.60;;;9.20;93.20;;;;;;4972823;28;20022;-73
2022/03/18 13:46:21;;;;;;;4.80;1.83;;;9.00;93.50;;;;;;4973032;28;20079;-73
2022/03/18 13:48:49;;;;;;;4.03;1.70;;;8.60;90.60;;;;;;4972724;28;20032;-71
2022/03/18 13:51:33;;;;;;;4.70;2.05;;;8.40;90.40;;;;;;4972990;28;20039;-71
2022/03/18 13:54:10;;;;;;;3.35;2.00;;;8.10;89.00;;;;;;4972566;28;20430;-71
2022/03/18 13:56:38;;;;;;;3.38;1.50;;;8.00;90.10;;;;;;4971175;28;20038;-71
2022/03/18 13:59:16;;;;;;;3.92;1.85;;;7.90;91.00;;;;;;4972770;28;20022;-71
2022/03/18 14:02:08;;;;;;;2.55;1.75;;;7.80;90.80;;;;;;4975835;28;20031;-71
2022/03/18 14:04:44;;;;;;;2.95;1.60;;;7.80;90.60;;;;;;4976176;28;20031;-71
2022/03/18 14:07:10;;;;;;;5.35;1.88;;;7.70;90.80;;;;;;4975882;28;20062;-67
2022/03/18 14:09:37;;;;;;;2.88;1.70;;;7.70;91.30;;;;;;4975663;28;20057;-67
2022/03/18 14:12:13;;;;;;;5.57;1.77;;;7.70;91.20;;;;;;4975833;28;20378;-67
2022/03/18 14:14:41;;;;;;;4.22;1.60;;;7.70;90.60;;;;;;4975358;28;20049;-67
2022/03/18 14:17:12;;;;;;;6.75;2.08;;;7.70;91.00;;;;;;4972974;28;20062;-67
2022/03/18 14:19:59;;;;;;;3.97;1.67;;;7.60;90.50;;;;;;4975407;28;20082;-67
2022/03/18 14:22:37;;;;;;;3.70;1.63;;;7.60;90.60;;;;;;4975026;28;20026;-68